sensor_id;sensor_type;location;lat;lon;timestamp;temperature;humidity
32215;DHT22;18708;53.124;23.190;2023-05-10T00:00:16;2.50;99.90
32215;DHT22;18708;53.124;23.190;2023-05-10T00:02:42;2.40;1.00
32215;DHT22;18708;53.124;23.190;2023-05-10T00:05:08;2.30;99.90
32215;DHT22;18708;53.124;23.190;2023-05-10T00:07:34;2.30;99.90
32215;DHT22;18708;53.124;23.190;2023-05-10T00:10:00;2.30;1.00
32215;DHT22;18708;53.124;23.190;2023-05-10T00:12:25;2.20;99.90
32215;DHT22;18708;53.124;23.190;2023-05-10T00:14:51;2.20;1.00
32215;DHT22;18708;53.124;23.190;2023-05-10T00:17:17;2.10;99.90
32215;DHT22;18708;53.124;23.190;2023-05-10T00:19:42;2.10;99.90
32215;DHT22;18708;53.124;23.190;2023-05-10T00:22:08;2.00;1.00
32215;DHT22;18708;53.124;23.190;2023-05-10T00:24:33;2.00;1.00
32215;DHT22;18708;53.124;23.190;2023-05-10T00:26:59;1.90;1.00
32215;DHT22;18708;53.124;23.190;2023-05-10T00:29:26;1.90;1.00
32215;DHT22;18708;53.124;23.190;2023-05-10T00:31:53;1.90;1.00
32215;DHT22;18708;53.124;23.190;2023-05-10T00:34:19;1.90;1.00
32215;DHT22;18708;53.124;23.190;2023-05-10T00:36:44;1.90;1.00
32215;DHT22;18708;53.124;23.190;2023-05-10T00:39:10;1.80;1.00
32215;DHT22;18708;53.124;23.190;2023-05-10T00:41:36;1.80;40.00
32215;DHT22;18708;53.124;23.190;2023-05-10T00:44:01;1.70;1.00
32215;DHT22;18708;53.124;23.190;2023-05-10T00:46:28;1.70;99.90
32215;DHT22;18708;53.124;23.190;2023-05-10T00:48:54;1.70;1.00
32215;DHT22;18708;53.124;23.190;2023-05-10T00:51:20;1.70;99.90
32215;DHT22;18708;53.124;23.190;2023-05-10T00:53:46;1.60;1.00
32215;DHT22;18708;53.124;23.190;2023-05-10T00:56:12;1.60;1.00
32215;DHT22;18708;53.124;23.190;2023-05-10T00:58:41;1.60;28.00
32215;DHT22;18708;53.124;23.190;2023-05-10T01:01:08;1.50;99.90
32215;DHT22;18708;53.124;23.190;2023-05-10T01:03:35;1.50;1.00
32215;DHT22;18708;53.124;23.190;2023-05-10T01:06:01;1.50;1.00
32215;DHT22;18708;53.124;23.190;2023-05-10T01:08:27;1.50;1.00
32215;DHT22;18708;53.124;23.190;2023-05-10T01:10:53;1.40;99.90
32215;DHT22;18708;53.124;23.190;2023-05-10T01:13:35;1.40;1.00
32215;DHT22;18708;53.124;23.190;2023-05-10T01:16:01;1.40;1.00
32215;DHT22;18708;53.124;23.190;2023-05-10T01:18:30;1.40;1.00
32215;DHT22;18708;53.124;23.190;2023-05-10T01:34:58;1.20;99.90
32215;DHT22;18708;53.124;23.190;2023-05-10T01:38:06;1.10;1.00
32215;DHT22;18708;53.124;23.190;2023-05-10T01:40:39;1.10;99.90
32215;DHT22;18708;53.124;23.190;2023-05-10T01:43:14;1.00;99.90
32215;DHT22;18708;53.124;23.190;2023-05-10T01:46:05;1.00;1.00
32215;DHT22;18708;53.124;23.190;2023-05-10T01:48:41;1.00;1.00
32215;DHT22;18708;53.124;23.190;2023-05-10T01:51:15;1.00;1.00
32215;DHT22;18708;53.124;23.190;2023-05-10T01:53:42;1.00;99.90
32215;DHT22;18708;53.124;23.190;2023-05-10T01:56:11;0.90;99.90
32215;DHT22;18708;53.124;23.190;2023-05-10T01:58:39;0.80;99.90
32215;DHT22;18708;53.124;23.190;2023-05-10T02:01:06;0.80;56.10
32215;DHT22;18708;53.124;23.190;2023-05-10T02:03:35;0.80;74.70
32215;DHT22;18708;53.124;23.190;2023-05-10T02:06:03;0.80;99.90
32215;DHT22;18708;53.124;23.190;2023-05-10T02:08:30;0.70;99.90
32215;DHT22;18708;53.124;23.190;2023-05-10T02:10:58;0.70;1.00
32215;DHT22;18708;53.124;23.190;2023-05-10T02:13:25;0.60;99.90
32215;DHT22;18708;53.124;23.190;2023-05-10T02:15:53;0.60;99.90
32215;DHT22;18708;53.124;23.190;2023-05-10T02:18:20;0.60;99.90
32215;DHT22;18708;53.124;23.190;2023-05-10T02:20:47;0.60;99.90
32215;DHT22;18708;53.124;23.190;2023-05-10T02:23:14;0.60;99.90
32215;DHT22;18708;53.124;23.190;2023-05-10T02:25:43;0.50;99.90
32215;DHT22;18708;53.124;23.190;2023-05-10T02:28:11;0.50;99.90
32215;DHT22;18708;53.124;23.190;2023-05-10T02:30:38;0.50;99.90
32215;DHT22;18708;53.124;23.190;2023-05-10T02:33:05;0.50;99.90
32215;DHT22;18708;53.124;23.190;2023-05-10T02:35:32;0.40;99.90
32215;DHT22;18708;53.124;23.190;2023-05-10T02:37:59;0.50;99.90
32215;DHT22;18708;53.124;23.190;2023-05-10T02:40:26;0.40;99.90
32215;DHT22;18708;53.124;23.190;2023-05-10T02:42:54;0.40;99.90
32215;DHT22;18708;53.124;23.190;2023-05-10T02:45:24;0.40;1.00
32215;DHT22;18708;53.124;23.190;2023-05-10T02:47:51;0.40;1.00
32215;DHT22;18708;53.124;23.190;2023-05-10T02:50:18;0.40;1.00
32215;DHT22;18708;53.124;23.190;2023-05-10T02:52:50;0.40;1.00
32215;DHT22;18708;53.124;23.190;2023-05-10T02:55:22;0.30;1.00
32215;DHT22;18708;53.124;23.190;2023-05-10T02:58:09;0.30;1.00
32215;DHT22;18708;53.124;23.190;2023-05-10T03:00:34;0.40;1.00
32215;DHT22;18708;53.124;23.190;2023-05-10T03:03:01;0.40;1.00
32215;DHT22;18708;53.124;23.190;2023-05-10T03:05:27;0.40;1.00
32215;DHT22;18708;53.124;23.190;2023-05-10T03:07:53;0.50;1.00
32215;DHT22;18708;53.124;23.190;2023-05-10T03:10:22;0.50;1.00
32215;DHT22;18708;53.124;23.190;2023-05-10T03:13:40;0.60;1.00
32215;DHT22;18708;53.124;23.190;2023-05-10T03:16:13;0.60;91.00
32215;DHT22;18708;53.124;23.190;2023-05-10T03:21:11;0.60;1.00
32215;DHT22;18708;53.124;23.190;2023-05-10T03:23:41;0.70;99.90
32215;DHT22;18708;53.124;23.190;2023-05-10T03:26:08;0.70;12.40
32215;DHT22;18708;53.124;23.190;2023-05-10T03:28:35;0.70;1.00
32215;DHT22;18708;53.124;23.190;2023-05-10T03:31:02;0.70;1.00
32215;DHT22;18708;53.124;23.190;2023-05-10T03:33:29;0.70;1.00
32215;DHT22;18708;53.124;23.190;2023-05-10T03:35:55;0.80;1.00
32215;DHT22;18708;53.124;23.190;2023-05-10T03:38:21;0.80;1.00
32215;DHT22;18708;53.124;23.190;2023-05-10T03:40:46;0.90;1.00
32215;DHT22;18708;53.124;23.190;2023-05-10T03:43:12;0.90;1.00
32215;DHT22;18708;53.124;23.190;2023-05-10T03:45:38;1.00;1.00
32215;DHT22;18708;53.124;23.190;2023-05-10T03:48:04;1.30;99.90
32215;DHT22;18708;53.124;23.190;2023-05-10T03:50:29;1.50;99.90
32215;DHT22;18708;53.124;23.190;2023-05-10T03:52:55;1.40;1.00
32215;DHT22;18708;53.124;23.190;2023-05-10T03:55:21;1.50;1.00
32215;DHT22;18708;53.124;23.190;2023-05-10T03:57:47;1.60;1.00
32215;DHT22;18708;53.124;23.190;2023-05-10T04:00:15;1.70;1.00
32215;DHT22;18708;53.124;23.190;2023-05-10T04:02:41;1.90;1.00
32215;DHT22;18708;53.124;23.190;2023-05-10T04:05:07;2.00;1.00
32215;DHT22;18708;53.124;23.190;2023-05-10T04:07:33;2.10;1.00
32215;DHT22;18708;53.124;23.190;2023-05-10T04:09:58;2.20;99.90
32215;DHT22;18708;53.124;23.190;2023-05-10T04:12:24;2.80;1.00
32215;DHT22;18708;53.124;23.190;2023-05-10T04:14:50;3.20;1.00
32215;DHT22;18708;53.124;23.190;2023-05-10T04:17:16;3.50;1.00
32215;DHT22;18708;53.124;23.190;2023-05-10T04:19:41;3.60;1.00
32215;DHT22;18708;53.124;23.190;2023-05-10T04:22:07;3.80;99.90
32215;DHT22;18708;53.124;23.190;2023-05-10T04:24:33;4.10;1.00
32215;DHT22;18708;53.124;23.190;2023-05-10T04:26:58;4.50;1.00
32215;DHT22;18708;53.124;23.190;2023-05-10T04:29:24;4.80;99.90
32215;DHT22;18708;53.124;23.190;2023-05-10T04:31:50;5.00;28.60
32215;DHT22;18708;53.124;23.190;2023-05-10T04:34:16;5.30;1.00
32215;DHT22;18708;53.124;23.190;2023-05-10T04:36:41;5.40;1.00
32215;DHT22;18708;53.124;23.190;2023-05-10T04:39:07;5.60;1.00
32215;DHT22;18708;53.124;23.190;2023-05-10T04:41:34;5.80;1.00
32215;DHT22;18708;53.124;23.190;2023-05-10T04:43:59;6.00;99.90
32215;DHT22;18708;53.124;23.190;2023-05-10T04:46:25;6.10;99.90
32215;DHT22;18708;53.124;23.190;2023-05-10T04:48:51;6.10;99.90
32215;DHT22;18708;53.124;23.190;2023-05-10T04:51:16;6.30;99.90
32215;DHT22;18708;53.124;23.190;2023-05-10T04:53:42;6.50;99.90
32215;DHT22;18708;53.124;23.190;2023-05-10T04:56:08;6.70;39.80
32215;DHT22;18708;53.124;23.190;2023-05-10T04:58:33;6.70;49.00
32215;DHT22;18708;53.124;23.190;2023-05-10T05:01:06;7.00;1.00
32215;DHT22;18708;53.124;23.190;2023-05-10T05:03:36;7.30;1.00
32215;DHT22;18708;53.124;23.190;2023-05-10T05:06:02;7.50;1.00
32215;DHT22;18708;53.124;23.190;2023-05-10T05:08:27;7.70;1.00
32215;DHT22;18708;53.124;23.190;2023-05-10T05:10:53;7.90;1.00
32215;DHT22;18708;53.124;23.190;2023-05-10T05:13:19;8.10;99.90
32215;DHT22;18708;53.124;23.190;2023-05-10T05:15:45;8.20;99.90
32215;DHT22;18708;53.124;23.190;2023-05-10T05:18:11;8.40;99.90
32215;DHT22;18708;53.124;23.190;2023-05-10T05:20:36;8.70;99.90
32215;DHT22;18708;53.124;23.190;2023-05-10T05:23:02;9.00;99.90
32215;DHT22;18708;53.124;23.190;2023-05-10T05:25:28;9.20;99.90
32215;DHT22;18708;53.124;23.190;2023-05-10T05:27:53;9.40;7.90
32215;DHT22;18708;53.124;23.190;2023-05-10T05:30:19;9.50;1.00
32215;DHT22;18708;53.124;23.190;2023-05-10T05:32:45;9.70;1.00
32215;DHT22;18708;53.124;23.190;2023-05-10T05:35:12;9.90;1.00
32215;DHT22;18708;53.124;23.190;2023-05-10T05:37:41;10.00;1.00
32215;DHT22;18708;53.124;23.190;2023-05-10T05:40:07;10.20;1.00
32215;DHT22;18708;53.124;23.190;2023-05-10T05:42:32;10.40;1.00
32215;DHT22;18708;53.124;23.190;2023-05-10T05:44:58;10.50;1.00
32215;DHT22;18708;53.124;23.190;2023-05-10T05:47:24;10.70;1.00
32215;DHT22;18708;53.124;23.190;2023-05-10T05:49:51;11.00;1.00
32215;DHT22;18708;53.124;23.190;2023-05-10T05:52:17;11.10;1.00
32215;DHT22;18708;53.124;23.190;2023-05-10T05:54:43;11.30;1.00
32215;DHT22;18708;53.124;23.190;2023-05-10T05:57:11;11.50;1.00
32215;DHT22;18708;53.124;23.190;2023-05-10T05:59:37;11.60;1.00
32215;DHT22;18708;53.124;23.190;2023-05-10T06:02:09;11.90;1.00
32215;DHT22;18708;53.124;23.190;2023-05-10T06:04:34;12.30;1.00
32215;DHT22;18708;53.124;23.190;2023-05-10T06:07:00;12.50;99.90
32215;DHT22;18708;53.124;23.190;2023-05-10T06:09:26;12.90;99.90
32215;DHT22;18708;53.124;23.190;2023-05-10T06:11:51;13.30;99.90
32215;DHT22;18708;53.124;23.190;2023-05-10T06:14:17;13.80;99.90
32215;DHT22;18708;53.124;23.190;2023-05-10T06:16:45;13.80;99.90
32215;DHT22;18708;53.124;23.190;2023-05-10T06:19:10;14.30;99.90
32215;DHT22;18708;53.124;23.190;2023-05-10T06:21:36;14.40;99.90
32215;DHT22;18708;53.124;23.190;2023-05-10T06:24:02;14.40;99.90
32215;DHT22;18708;53.124;23.190;2023-05-10T06:26:28;14.50;99.90
32215;DHT22;18708;53.124;23.190;2023-05-10T06:28:53;14.90;99.90
32215;DHT22;18708;53.124;23.190;2023-05-10T06:31:19;15.10;99.90
32215;DHT22;18708;53.124;23.190;2023-05-10T06:33:45;15.10;99.90
32215;DHT22;18708;53.124;23.190;2023-05-10T06:36:11;15.60;99.90
32215;DHT22;18708;53.124;23.190;2023-05-10T06:38:36;15.70;99.90
32215;DHT22;18708;53.124;23.190;2023-05-10T06:41:02;15.40;90.40
32215;DHT22;18708;53.124;23.190;2023-05-10T06:43:28;15.40;44.20
32215;DHT22;18708;53.124;23.190;2023-05-10T06:45:54;15.80;71.70
32215;DHT22;18708;53.124;23.190;2023-05-10T06:48:19;16.00;59.70
32215;DHT22;18708;53.124;23.190;2023-05-10T06:50:45;16.50;32.00
32215;DHT22;18708;53.124;23.190;2023-05-10T06:53:11;16.50;37.60
32215;DHT22;18708;53.124;23.190;2023-05-10T06:55:37;16.70;4.70
32215;DHT22;18708;53.124;23.190;2023-05-10T06:58:03;16.40;3.50
32215;DHT22;18708;53.124;23.190;2023-05-10T07:00:28;16.30;1.00
32215;DHT22;18708;53.124;23.190;2023-05-10T07:02:56;16.40;1.00
32215;DHT22;18708;53.124;23.190;2023-05-10T07:05:23;16.70;1.00
32215;DHT22;18708;53.124;23.190;2023-05-10T07:07:49;16.70;1.00
32215;DHT22;18708;53.124;23.190;2023-05-10T07:10:15;16.60;22.90
32215;DHT22;18708;53.124;23.190;2023-05-10T07:12:43;17.50;1.00
32215;DHT22;18708;53.124;23.190;2023-05-10T07:15:09;17.90;4.70
32215;DHT22;18708;53.124;23.190;2023-05-10T07:17:34;17.80;1.00
32215;DHT22;18708;53.124;23.190;2023-05-10T07:20:00;18.00;21.20
32215;DHT22;18708;53.124;23.190;2023-05-10T07:22:26;17.70;7.80
32215;DHT22;18708;53.124;23.190;2023-05-10T07:24:52;18.00;23.40
32215;DHT22;18708;53.124;23.190;2023-05-10T07:27:18;18.30;39.60
32215;DHT22;18708;53.124;23.190;2023-05-10T07:29:43;18.30;19.10
32215;DHT22;18708;53.124;23.190;2023-05-10T07:32:09;18.70;16.10
32215;DHT22;18708;53.124;23.190;2023-05-10T07:34:35;18.60;8.00
32215;DHT22;18708;53.124;23.190;2023-05-10T07:37:01;18.30;62.20
32215;DHT22;18708;53.124;23.190;2023-05-10T07:39:27;17.90;27.10
32215;DHT22;18708;53.124;23.190;2023-05-10T07:41:53;18.20;9.10
32215;DHT22;18708;53.124;23.190;2023-05-10T07:44:18;18.30;1.00
32215;DHT22;18708;53.124;23.190;2023-05-10T07:46:47;18.00;1.00
32215;DHT22;18708;53.124;23.190;2023-05-10T07:49:14;18.50;24.80
32215;DHT22;18708;53.124;23.190;2023-05-10T07:51:40;18.20;1.10
32215;DHT22;18708;53.124;23.190;2023-05-10T07:54:05;18.40;3.60
32215;DHT22;18708;53.124;23.190;2023-05-10T07:56:32;18.50;1.00
32215;DHT22;18708;53.124;23.190;2023-05-10T07:59:03;17.80;1.00
32215;DHT22;18708;53.124;23.190;2023-05-10T08:01:33;18.20;1.00
32215;DHT22;18708;53.124;23.190;2023-05-10T08:03:59;18.30;1.00
32215;DHT22;18708;53.124;23.190;2023-05-10T08:06:25;18.50;1.00
32215;DHT22;18708;53.124;23.190;2023-05-10T08:08:55;17.80;1.00
32215;DHT22;18708;53.124;23.190;2023-05-10T08:11:21;17.80;1.00
32215;DHT22;18708;53.124;23.190;2023-05-10T08:13:49;17.40;1.00
32215;DHT22;18708;53.124;23.190;2023-05-10T08:16:15;17.70;1.00
32215;DHT22;18708;53.124;23.190;2023-05-10T08:18:42;18.20;1.00
32215;DHT22;18708;53.124;23.190;2023-05-10T08:21:08;18.80;1.00
32215;DHT22;18708;53.124;23.190;2023-05-10T08:23:36;18.20;1.00
32215;DHT22;18708;53.124;23.190;2023-05-10T08:26:01;18.30;1.00
32215;DHT22;18708;53.124;23.190;2023-05-10T08:28:27;18.60;1.00
32215;DHT22;18708;53.124;23.190;2023-05-10T08:30:53;18.60;1.00
32215;DHT22;18708;53.124;23.190;2023-05-10T08:33:19;19.50;1.00
32215;DHT22;18708;53.124;23.190;2023-05-10T08:35:45;19.80;1.00
32215;DHT22;18708;53.124;23.190;2023-05-10T08:38:11;19.40;1.00
32215;DHT22;18708;53.124;23.190;2023-05-10T08:40:38;19.10;1.00
32215;DHT22;18708;53.124;23.190;2023-05-10T08:43:08;18.80;1.00
32215;DHT22;18708;53.124;23.190;2023-05-10T08:45:40;19.00;1.00
32215;DHT22;18708;53.124;23.190;2023-05-10T08:48:07;19.60;1.00
32215;DHT22;18708;53.124;23.190;2023-05-10T08:50:38;19.80;1.00
32215;DHT22;18708;53.124;23.190;2023-05-10T08:53:06;18.30;1.00
32215;DHT22;18708;53.124;23.190;2023-05-10T08:55:33;18.00;1.00
32215;DHT22;18708;53.124;23.190;2023-05-10T08:58:00;18.70;1.00
32215;DHT22;18708;53.124;23.190;2023-05-10T09:00:26;18.40;1.00
32215;DHT22;18708;53.124;23.190;2023-05-10T09:02:52;19.00;1.00
32215;DHT22;18708;53.124;23.190;2023-05-10T09:05:18;18.70;23.10
32215;DHT22;18708;53.124;23.190;2023-05-10T09:07:44;18.70;1.00
32215;DHT22;18708;53.124;23.190;2023-05-10T09:10:11;18.80;1.00
32215;DHT22;18708;53.124;23.190;2023-05-10T09:12:38;18.80;1.00
32215;DHT22;18708;53.124;23.190;2023-05-10T09:15:05;19.80;1.00
32215;DHT22;18708;53.124;23.190;2023-05-10T09:17:32;20.10;1.00
32215;DHT22;18708;53.124;23.190;2023-05-10T09:20:03;20.00;1.00
32215;DHT22;18708;53.124;23.190;2023-05-10T09:22:30;19.20;1.00
32215;DHT22;18708;53.124;23.190;2023-05-10T09:25:10;19.20;1.00
32215;DHT22;18708;53.124;23.190;2023-05-10T09:27:38;20.10;1.00
32215;DHT22;18708;53.124;23.190;2023-05-10T09:30:07;20.00;1.00
32215;DHT22;18708;53.124;23.190;2023-05-10T09:32:47;20.60;1.00
32215;DHT22;18708;53.124;23.190;2023-05-10T09:35:19;19.90;1.00
32215;DHT22;18708;53.124;23.190;2023-05-10T09:37:47;19.90;1.00
32215;DHT22;18708;53.124;23.190;2023-05-10T09:40:15;19.90;84.10
32215;DHT22;18708;53.124;23.190;2023-05-10T09:42:50;20.00;1.00
32215;DHT22;18708;53.124;23.190;2023-05-10T09:45:16;20.10;96.60
32215;DHT22;18708;53.124;23.190;2023-05-10T09:47:41;19.50;1.00
32215;DHT22;18708;53.124;23.190;2023-05-10T09:50:07;19.70;1.00
32215;DHT22;18708;53.124;23.190;2023-05-10T09:53:05;19.60;1.00
32215;DHT22;18708;53.124;23.190;2023-05-10T09:55:40;18.90;1.00
32215;DHT22;18708;53.124;23.190;2023-05-10T09:58:07;18.90;1.00
32215;DHT22;18708;53.124;23.190;2023-05-10T10:00:43;19.10;1.00
32215;DHT22;18708;53.124;23.190;2023-05-10T10:03:14;19.00;1.00
32215;DHT22;18708;53.124;23.190;2023-05-10T10:05:41;19.10;1.00
32215;DHT22;18708;53.124;23.190;2023-05-10T10:08:10;19.90;1.00
32215;DHT22;18708;53.124;23.190;2023-05-10T10:10:37;20.00;1.00
32215;DHT22;18708;53.124;23.190;2023-05-10T10:13:06;20.10;1.00
32215;DHT22;18708;53.124;23.190;2023-05-10T10:15:33;20.30;1.00
32215;DHT22;18708;53.124;23.190;2023-05-10T10:18:01;19.20;1.00
32215;DHT22;18708;53.124;23.190;2023-05-10T10:20:28;19.50;1.00
32215;DHT22;18708;53.124;23.190;2023-05-10T10:22:54;20.10;1.00
32215;DHT22;18708;53.124;23.190;2023-05-10T10:25:20;20.10;1.00
32215;DHT22;18708;53.124;23.190;2023-05-10T10:35:36;20.30;1.00
32215;DHT22;18708;53.124;23.190;2023-05-10T10:38:02;20.80;1.00
32215;DHT22;18708;53.124;23.190;2023-05-10T10:40:32;19.30;1.00
32215;DHT22;18708;53.124;23.190;2023-05-10T10:46:17;18.10;1.00
32215;DHT22;18708;53.124;23.190;2023-05-10T10:48:52;18.40;1.00
32215;DHT22;18708;53.124;23.190;2023-05-10T10:51:40;19.30;1.00
32215;DHT22;18708;53.124;23.190;2023-05-10T10:54:12;20.20;1.00
32215;DHT22;18708;53.124;23.190;2023-05-10T10:56:38;20.20;1.00
32215;DHT22;18708;53.124;23.190;2023-05-10T10:59:04;20.80;1.00
32215;DHT22;18708;53.124;23.190;2023-05-10T11:01:34;21.00;1.00
32215;DHT22;18708;53.124;23.190;2023-05-10T11:06:32;20.40;1.00
32215;DHT22;18708;53.124;23.190;2023-05-10T11:09:05;20.50;1.00
32215;DHT22;18708;53.124;23.190;2023-05-10T11:11:31;21.40;1.00
32215;DHT22;18708;53.124;23.190;2023-05-10T11:14:03;20.60;1.00
32215;DHT22;18708;53.124;23.190;2023-05-10T11:16:43;21.40;1.00
32215;DHT22;18708;53.124;23.190;2023-05-10T11:19:13;20.90;1.00
32215;DHT22;18708;53.124;23.190;2023-05-10T11:21:50;20.70;1.00
32215;DHT22;18708;53.124;23.190;2023-05-10T11:24:18;20.30;1.00
32215;DHT22;18708;53.124;23.190;2023-05-10T11:26:44;21.30;1.00
32215;DHT22;18708;53.124;23.190;2023-05-10T11:29:12;21.60;1.00
32215;DHT22;18708;53.124;23.190;2023-05-10T11:31:43;21.10;1.00
32215;DHT22;18708;53.124;23.190;2023-05-10T11:34:09;21.20;1.00
32215;DHT22;18708;53.124;23.190;2023-05-10T11:36:35;21.60;1.00
32215;DHT22;18708;53.124;23.190;2023-05-10T11:39:02;21.50;1.00
32215;DHT22;18708;53.124;23.190;2023-05-10T11:41:29;22.20;1.00
32215;DHT22;18708;53.124;23.190;2023-05-10T11:43:56;20.60;1.00
32215;DHT22;18708;53.124;23.190;2023-05-10T11:46:25;20.80;1.00
32215;DHT22;18708;53.124;23.190;2023-05-10T11:48:53;21.10;1.00
32215;DHT22;18708;53.124;23.190;2023-05-10T11:51:24;21.60;1.00
32215;DHT22;18708;53.124;23.190;2023-05-10T11:53:52;22.00;1.00
32215;DHT22;18708;53.124;23.190;2023-05-10T11:56:18;20.50;1.00
32215;DHT22;18708;53.124;23.190;2023-05-10T11:58:44;20.40;1.00
32215;DHT22;18708;53.124;23.190;2023-05-10T12:01:10;20.10;1.00
32215;DHT22;18708;53.124;23.190;2023-05-10T12:03:36;20.50;1.00
32215;DHT22;18708;53.124;23.190;2023-05-10T12:06:03;20.90;1.00
32215;DHT22;18708;53.124;23.190;2023-05-10T12:08:30;20.40;1.00
32215;DHT22;18708;53.124;23.190;2023-05-10T12:11:16;20.00;1.00
32215;DHT22;18708;53.124;23.190;2023-05-10T12:13:44;20.80;1.00
32215;DHT22;18708;53.124;23.190;2023-05-10T12:18:40;20.90;1.00
32215;DHT22;18708;53.124;23.190;2023-05-10T12:21:10;21.10;1.00
32215;DHT22;18708;53.124;23.190;2023-05-10T12:23:36;20.10;1.00
32215;DHT22;18708;53.124;23.190;2023-05-10T12:26:03;20.40;1.00
32215;DHT22;18708;53.124;23.190;2023-05-10T12:28:32;20.50;1.00
32215;DHT22;18708;53.124;23.190;2023-05-10T12:30:59;21.30;1.00
32215;DHT22;18708;53.124;23.190;2023-05-10T12:33:25;21.20;1.00
32215;DHT22;18708;53.124;23.190;2023-05-10T12:35:53;20.80;1.00
32215;DHT22;18708;53.124;23.190;2023-05-10T12:38:31;20.70;1.00
32215;DHT22;18708;53.124;23.190;2023-05-10T12:41:02;20.30;1.00
32215;DHT22;18708;53.124;23.190;2023-05-10T12:43:29;20.30;1.00
32215;DHT22;18708;53.124;23.190;2023-05-10T12:45:55;20.50;1.00
32215;DHT22;18708;53.124;23.190;2023-05-10T12:48:21;20.30;1.00
32215;DHT22;18708;53.124;23.190;2023-05-10T12:50:46;20.80;1.00
32215;DHT22;18708;53.124;23.190;2023-05-10T12:53:16;20.30;1.00
32215;DHT22;18708;53.124;23.190;2023-05-10T12:55:43;20.00;1.00
32215;DHT22;18708;53.124;23.190;2023-05-10T12:58:08;20.10;1.00
32215;DHT22;18708;53.124;23.190;2023-05-10T13:00:34;20.30;1.00
32215;DHT22;18708;53.124;23.190;2023-05-10T13:03:00;20.20;1.00
32215;DHT22;18708;53.124;23.190;2023-05-10T13:05:25;20.60;1.00
32215;DHT22;18708;53.124;23.190;2023-05-10T13:07:51;21.70;1.00
32215;DHT22;18708;53.124;23.190;2023-05-10T13:10:19;21.00;1.00
32215;DHT22;18708;53.124;23.190;2023-05-10T13:12:45;19.90;1.00
32215;DHT22;18708;53.124;23.190;2023-05-10T13:15:11;19.60;1.00
32215;DHT22;18708;53.124;23.190;2023-05-10T13:17:36;20.10;1.00
32215;DHT22;18708;53.124;23.190;2023-05-10T13:20:04;20.60;1.00
32215;DHT22;18708;53.124;23.190;2023-05-10T13:22:31;20.60;1.00
32215;DHT22;18708;53.124;23.190;2023-05-10T13:24:56;20.80;1.00
32215;DHT22;18708;53.124;23.190;2023-05-10T13:27:22;20.90;1.00
32215;DHT22;18708;53.124;23.190;2023-05-10T13:29:48;20.10;1.70
32215;DHT22;18708;53.124;23.190;2023-05-10T13:32:13;20.30;1.00
32215;DHT22;18708;53.124;23.190;2023-05-10T13:34:39;19.90;1.00
32215;DHT22;18708;53.124;23.190;2023-05-10T13:37:04;19.40;7.10
32215;DHT22;18708;53.124;23.190;2023-05-10T13:39:30;19.70;1.00
32215;DHT22;18708;53.124;23.190;2023-05-10T13:41:58;19.80;1.00
32215;DHT22;18708;53.124;23.190;2023-05-10T13:44:24;20.00;1.00
32215;DHT22;18708;53.124;23.190;2023-05-10T13:46:50;20.20;21.10
32215;DHT22;18708;53.124;23.190;2023-05-10T13:49:17;20.00;1.00
32215;DHT22;18708;53.124;23.190;2023-05-10T13:51:43;20.40;1.00
32215;DHT22;18708;53.124;23.190;2023-05-10T13:54:09;20.00;10.60
32215;DHT22;18708;53.124;23.190;2023-05-10T13:56:34;20.10;1.00
32215;DHT22;18708;53.124;23.190;2023-05-10T13:59:00;20.40;14.10
32215;DHT22;18708;53.124;23.190;2023-05-10T14:01:26;20.30;1.00
32215;DHT22;18708;53.124;23.190;2023-05-10T14:03:52;20.10;3.50
32215;DHT22;18708;53.124;23.190;2023-05-10T14:06:17;19.80;1.00
32215;DHT22;18708;53.124;23.190;2023-05-10T14:08:43;19.50;2.00
32215;DHT22;18708;53.124;23.190;2023-05-10T14:11:09;19.30;11.30
32215;DHT22;18708;53.124;23.190;2023-05-10T14:13:34;18.60;1.00
32215;DHT22;18708;53.124;23.190;2023-05-10T14:16:00;18.50;1.00
32215;DHT22;18708;53.124;23.190;2023-05-10T14:18:27;18.80;1.00
32215;DHT22;18708;53.124;23.190;2023-05-10T14:20:53;19.30;1.00
32215;DHT22;18708;53.124;23.190;2023-05-10T14:23:18;19.20;1.00
32215;DHT22;18708;53.124;23.190;2023-05-10T14:25:52;18.70;1.00
32215;DHT22;18708;53.124;23.190;2023-05-10T14:28:18;19.00;1.00
32215;DHT22;18708;53.124;23.190;2023-05-10T14:30:45;19.40;1.00
32215;DHT22;18708;53.124;23.190;2023-05-10T14:33:11;19.40;1.00
32215;DHT22;18708;53.124;23.190;2023-05-10T14:35:37;18.80;1.00
32215;DHT22;18708;53.124;23.190;2023-05-10T14:38:03;18.60;1.00
32215;DHT22;18708;53.124;23.190;2023-05-10T14:40:29;18.50;1.00
32215;DHT22;18708;53.124;23.190;2023-05-10T14:42:55;18.60;1.00
32215;DHT22;18708;53.124;23.190;2023-05-10T14:45:22;18.70;1.00
32215;DHT22;18708;53.124;23.190;2023-05-10T14:47:48;18.80;1.00
32215;DHT22;18708;53.124;23.190;2023-05-10T14:50:14;18.70;1.00
32215;DHT22;18708;53.124;23.190;2023-05-10T14:52:40;18.80;1.00
32215;DHT22;18708;53.124;23.190;2023-05-10T14:55:06;18.60;1.00
32215;DHT22;18708;53.124;23.190;2023-05-10T14:57:32;18.70;1.00
32215;DHT22;18708;53.124;23.190;2023-05-10T14:59:58;18.40;1.00
32215;DHT22;18708;53.124;23.190;2023-05-10T15:02:24;18.40;1.00
32215;DHT22;18708;53.124;23.190;2023-05-10T15:04:52;18.10;1.00
32215;DHT22;18708;53.124;23.190;2023-05-10T15:07:18;18.10;1.00
32215;DHT22;18708;53.124;23.190;2023-05-10T15:09:46;17.80;1.00
32215;DHT22;18708;53.124;23.190;2023-05-10T15:12:12;17.60;1.00
32215;DHT22;18708;53.124;23.190;2023-05-10T15:14:38;17.60;1.00
32215;DHT22;18708;53.124;23.190;2023-05-10T15:17:05;17.50;1.00
32215;DHT22;18708;53.124;23.190;2023-05-10T15:19:31;17.70;1.00
32215;DHT22;18708;53.124;23.190;2023-05-10T15:21:58;17.80;1.00
32215;DHT22;18708;53.124;23.190;2023-05-10T15:24:24;17.80;1.00
32215;DHT22;18708;53.124;23.190;2023-05-10T15:26:50;17.80;15.10
32215;DHT22;18708;53.124;23.190;2023-05-10T15:29:16;17.60;1.00
32215;DHT22;18708;53.124;23.190;2023-05-10T15:31:51;17.60;1.00
32215;DHT22;18708;53.124;23.190;2023-05-10T15:34:17;17.40;1.00
32215;DHT22;18708;53.124;23.190;2023-05-10T15:36:44;17.40;1.00
32215;DHT22;18708;53.124;23.190;2023-05-10T15:39:11;17.60;1.00
32215;DHT22;18708;53.124;23.190;2023-05-10T15:41:37;17.50;1.00
32215;DHT22;18708;53.124;23.190;2023-05-10T15:44:03;17.30;17.30
32215;DHT22;18708;53.124;23.190;2023-05-10T15:46:29;17.20;1.00
32215;DHT22;18708;53.124;23.190;2023-05-10T15:48:56;17.20;1.00
32215;DHT22;18708;53.124;23.190;2023-05-10T15:51:22;17.20;1.00
32215;DHT22;18708;53.124;23.190;2023-05-10T15:53:48;17.30;1.00
32215;DHT22;18708;53.124;23.190;2023-05-10T15:56:13;17.30;1.00
32215;DHT22;18708;53.124;23.190;2023-05-10T15:58:40;17.40;1.00
32215;DHT22;18708;53.124;23.190;2023-05-10T16:01:06;17.30;1.00
32215;DHT22;18708;53.124;23.190;2023-05-10T16:03:33;17.30;7.90
32215;DHT22;18708;53.124;23.190;2023-05-10T16:05:59;17.40;1.00